createdAt,value
2022-11-29T00:01:19.637Z,2.00
2022-11-29T00:04:08.634Z,2.27
2022-11-29T00:06:56.482Z,2.47
2022-11-29T00:09:47.005Z,2.17
2022-11-29T00:12:35.673Z,2.20
2022-11-29T00:15:24.281Z,1.90
2022-11-29T00:18:13.088Z,2.08
2022-11-29T00:21:02.056Z,2.10
2022-11-29T00:23:49.959Z,1.90
2022-11-29T00:26:40.007Z,2.03
2022-11-29T00:29:30.266Z,1.88
2022-11-29T00:32:18.836Z,2.20
2022-11-29T00:35:09.783Z,2.28
2022-11-29T00:40:51.614Z,2.13
2022-11-29T00:43:42.223Z,1.92
2022-11-29T00:46:30.913Z,2.20
2022-11-29T00:49:19.561Z,2.20
2022-11-29T00:52:07.581Z,2.03
2022-11-29T00:54:56.420Z,2.05
2022-11-29T00:57:44.584Z,1.85
2022-11-29T01:00:34.700Z,2.10
2022-11-29T01:03:23.046Z,1.92
2022-11-29T01:06:14.984Z,1.90
2022-11-29T01:11:51.619Z,1.90
2022-11-29T01:14:40.174Z,2.13
2022-11-29T01:17:30.073Z,2.13
2022-11-29T01:20:18.593Z,1.90
2022-11-29T01:23:06.844Z,2.22
2022-11-29T01:26:00.089Z,1.90
2022-11-29T01:28:50.232Z,2.15
2022-11-29T01:31:38.888Z,2.08
2022-11-29T01:34:28.915Z,1.98
2022-11-29T01:37:16.976Z,1.85
2022-11-29T01:40:06.790Z,1.90
2022-11-29T01:42:55.306Z,2.30
2022-11-29T01:45:44.168Z,2.10
2022-11-29T01:48:34.717Z,2.40
2022-11-29T01:51:25.729Z,2.20
2022-11-29T01:54:16.220Z,2.00
2022-11-29T01:57:07.680Z,2.22
2022-11-29T02:00:01.991Z,1.90
2022-11-29T02:03:06.403Z,2.10
2022-11-29T02:05:56.134Z,2.13
2022-11-29T02:08:46.179Z,1.92
2022-11-29T02:12:00.464Z,2.17
2022-11-29T02:15:09.934Z,2.03
2022-11-29T02:18:06.700Z,2.10
2022-11-29T02:21:22.861Z,2.00
2022-11-29T02:24:43.071Z,1.75
2022-11-29T02:28:04.469Z,2.00
2022-11-29T02:31:31.155Z,2.00
2022-11-29T02:34:49.313Z,1.60
2022-11-29T02:38:04.966Z,2.13
2022-11-29T02:41:19.738Z,1.98
2022-11-29T02:44:35.079Z,2.17
2022-11-29T02:47:30.393Z,1.80
2022-11-29T02:50:30.769Z,2.10
2022-11-29T02:53:26.016Z,2.13
2022-11-29T02:56:21.992Z,1.90
2022-11-29T02:59:16.160Z,2.20
2022-11-29T03:02:13.981Z,2.05
2022-11-29T03:05:15.167Z,1.98
2022-11-29T03:08:12.580Z,2.23
2022-11-29T03:11:07.993Z,2.15
2022-11-29T03:14:06.328Z,2.13
2022-11-29T03:17:05.221Z,2.10
2022-11-29T03:20:09.288Z,2.13
2022-11-29T03:23:20.146Z,1.90
2022-11-29T03:26:13.117Z,2.07
2022-11-29T03:29:07.337Z,1.88
2022-11-29T03:32:03.112Z,1.80
2022-11-29T03:35:03.418Z,2.10
2022-11-29T03:37:59.899Z,2.08
2022-11-29T03:40:53.714Z,1.88
2022-11-29T03:43:47.275Z,1.83
2022-11-29T03:46:40.573Z,2.03
2022-11-29T03:49:35.536Z,2.05
2022-11-29T03:52:30.755Z,1.80
2022-11-29T03:55:31.730Z,1.95
2022-11-29T03:58:33.900Z,2.00
2022-11-29T04:01:49.036Z,2.17
2022-11-29T04:05:13.762Z,2.13
2022-11-29T04:08:41.612Z,1.75
2022-11-29T04:12:05.325Z,2.10
2022-11-29T04:15:15.343Z,1.83
2022-11-29T04:18:41.011Z,1.63
2022-11-29T04:21:51.118Z,1.80
2022-11-29T04:25:18.726Z,2.10
2022-11-29T04:28:35.844Z,2.10
2022-11-29T04:31:39.140Z,1.60
2022-11-29T04:35:02.878Z,2.10
2022-11-29T04:38:10.850Z,1.85
2022-11-29T04:41:15.098Z,1.98
2022-11-29T04:44:13.434Z,1.88
2022-11-29T04:47:20.457Z,1.65
2022-11-29T04:50:22.417Z,1.77
2022-11-29T04:53:36.395Z,2.00
2022-11-29T04:56:34.320Z,1.70
2022-11-29T04:59:27.508Z,2.08
2022-11-29T05:02:30.096Z,1.88
2022-11-29T05:05:34.442Z,1.95
2022-11-29T05:08:33.999Z,1.90
2022-11-29T05:11:35.784Z,1.58
2022-11-29T05:14:34.468Z,1.92
2022-11-29T05:17:34.930Z,1.70
2022-11-29T05:20:41.512Z,1.90
2022-11-29T05:23:41.313Z,2.00
2022-11-29T05:26:33.671Z,1.88
2022-11-29T05:29:31.274Z,1.92
2022-11-29T05:32:32.696Z,1.80
2022-11-29T05:35:54.397Z,1.70
2022-11-29T05:39:02.209Z,1.80
2022-11-29T05:42:06.219Z,1.75
2022-11-29T05:45:00.059Z,1.80
2022-11-29T05:47:55.537Z,1.90
2022-11-29T05:50:49.083Z,1.83
2022-11-29T05:53:45.632Z,1.90
2022-11-29T05:56:47.141Z,2.00
2022-11-29T06:02:38.546Z,1.80
2022-11-29T06:05:36.721Z,1.75
2022-11-29T06:08:35.445Z,1.80
2022-11-29T06:11:26.259Z,1.90
2022-11-29T06:14:29.929Z,2.10
2022-11-29T06:17:39.580Z,2.08
2022-11-29T06:20:49.147Z,1.90
2022-11-29T06:23:50.716Z,1.77
2022-11-29T06:26:59.414Z,1.80
2022-11-29T06:29:55.962Z,1.70
2022-11-29T06:32:51.685Z,1.95
2022-11-29T06:35:47.239Z,2.00
2022-11-29T06:38:35.921Z,1.70
2022-11-29T06:41:25.703Z,1.65
2022-11-29T06:44:14.767Z,1.70
2022-11-29T06:47:08.720Z,2.03
2022-11-29T06:50:04.810Z,1.90
2022-11-29T06:53:03.065Z,1.73
2022-11-29T06:56:02.741Z,1.88
2022-11-29T06:59:00.825Z,2.00
2022-11-29T07:01:55.216Z,1.98
2022-11-29T07:04:56.741Z,1.80
2022-11-29T07:07:47.178Z,1.75
2022-11-29T07:10:39.819Z,1.60
2022-11-29T07:13:28.744Z,1.60
2022-11-29T07:16:26.745Z,1.85
2022-11-29T07:19:24.658Z,1.75
2022-11-29T07:22:33.257Z,1.80
2022-11-29T07:25:31.856Z,1.63
2022-11-29T07:28:33.468Z,1.80
2022-11-29T07:34:27.063Z,1.75
2022-11-29T07:37:25.259Z,2.00
2022-11-29T07:40:17.135Z,1.90
2022-11-29T07:43:21.024Z,1.58
2022-11-29T07:46:10.981Z,1.60
2022-11-29T07:48:59.433Z,1.63
2022-11-29T07:51:48.097Z,1.83
2022-11-29T07:54:36.605Z,1.85
2022-11-29T07:57:25.537Z,1.60
2022-11-29T08:00:15.278Z,1.63
2022-11-29T08:03:05.861Z,1.90
2022-11-29T08:05:54.519Z,1.58
2022-11-29T08:08:44.372Z,2.03
2022-11-29T08:11:33.460Z,1.52
2022-11-29T08:14:21.630Z,1.90
2022-11-29T08:17:10.666Z,1.75
2022-11-29T08:20:04.109Z,1.80
2022-11-29T08:22:56.888Z,1.70
2022-11-29T08:25:46.039Z,1.70
2022-11-29T08:28:35.153Z,1.58
2022-11-29T08:31:23.509Z,1.70
2022-11-29T08:34:12.445Z,1.65
2022-11-29T08:37:02.036Z,1.60
2022-11-29T08:39:50.531Z,1.80
2022-11-29T08:42:38.800Z,1.70
2022-11-29T08:45:27.369Z,1.90
2022-11-29T08:48:15.910Z,1.77
2022-11-29T08:51:05.835Z,1.65
2022-11-29T08:53:54.354Z,1.80
2022-11-29T08:57:31.101Z,1.67
2022-11-29T08:59:51.043Z,1.70
2022-11-29T09:02:39.771Z,1.67
2022-11-29T09:05:28.049Z,1.60
2022-11-29T09:08:17.136Z,1.85
2022-11-29T09:11:13.402Z,1.58
2022-11-29T09:14:03.988Z,1.50
2022-11-29T09:16:52.603Z,1.90
2022-11-29T09:19:40.742Z,1.60
2022-11-29T09:22:29.513Z,1.77
2022-11-29T09:25:18.800Z,1.75
2022-11-29T09:28:08.813Z,1.48
2022-11-29T09:30:57.488Z,1.70
2022-11-29T09:33:45.955Z,1.67
2022-11-29T09:36:34.519Z,1.60
2022-11-29T09:39:22.624Z,1.60
2022-11-29T09:42:27.306Z,1.40
2022-11-29T09:45:21.706Z,1.60
2022-11-29T09:48:55.738Z,1.60
2022-11-29T09:51:53.226Z,1.67
2022-11-29T09:54:52.332Z,1.70
2022-11-29T09:57:44.147Z,1.73
2022-11-29T10:00:39.381Z,1.70
2022-11-29T10:03:33.075Z,1.73
2022-11-29T10:06:26.686Z,1.70
2022-11-29T10:09:19.812Z,1.67
2022-11-29T10:12:18.173Z,1.55
2022-11-29T10:15:14.053Z,1.70
2022-11-29T10:18:12.595Z,1.67
2022-11-29T10:21:07.734Z,1.60
2022-11-29T10:24:00.495Z,1.50
2022-11-29T10:26:48.764Z,1.40
2022-11-29T10:29:37.396Z,1.80
2022-11-29T10:32:27.461Z,1.80
2022-11-29T10:35:19.782Z,1.77
2022-11-29T10:38:30.189Z,1.67
2022-11-29T10:41:21.788Z,1.70
2022-11-29T10:44:15.543Z,1.70
2022-11-29T10:47:10.736Z,1.40
2022-11-29T10:49:59.533Z,1.40
2022-11-29T10:52:49.321Z,1.50
2022-11-29T10:55:43.154Z,1.40
2022-11-29T10:58:32.531Z,1.63
2022-11-29T11:01:21.296Z,1.80
2022-11-29T11:04:16.896Z,1.55
2022-11-29T11:07:08.051Z,1.67
2022-11-29T11:09:59.569Z,1.73
2022-11-29T11:13:03.260Z,1.48
2022-11-29T11:15:58.427Z,1.60
2022-11-29T11:18:47.811Z,1.73
2022-11-29T11:21:40.405Z,1.70
2022-11-29T11:24:31.257Z,1.45
2022-11-29T11:30:22.966Z,1.40
2022-11-29T11:33:20.628Z,1.60
2022-11-29T11:36:13.425Z,1.70
2022-11-29T11:39:20.713Z,1.65
2022-11-29T11:42:27.618Z,1.75
2022-11-29T11:45:28.513Z,1.70
2022-11-29T11:48:19.275Z,1.40
2022-11-29T11:51:23.097Z,1.42
2022-11-29T11:54:16.139Z,1.67
2022-11-29T11:57:05.138Z,1.70
2022-11-29T11:59:55.913Z,1.60
2022-11-29T12:02:46.285Z,1.60
2022-11-29T12:05:35.113Z,1.50
2022-11-29T12:08:25.223Z,1.50
2022-11-29T12:11:17.412Z,1.60
2022-11-29T12:14:08.347Z,1.50
2022-11-29T12:17:04.545Z,1.60
2022-11-29T12:20:13.907Z,1.50
2022-11-29T12:23:20.089Z,1.48
2022-11-29T12:26:41.133Z,1.75
2022-11-29T12:29:28.700Z,1.60
2022-11-29T12:32:34.226Z,1.50
2022-11-29T12:35:36.694Z,1.58
2022-11-29T12:38:50.652Z,1.40
2022-11-29T12:41:53.792Z,1.50
2022-11-29T12:44:54.356Z,1.50
2022-11-29T12:47:52.463Z,1.48
2022-11-29T12:50:51.893Z,1.55
2022-11-29T12:53:51.720Z,1.48
2022-11-29T12:56:48.320Z,1.63
2022-11-29T12:59:55.342Z,1.38
2022-11-29T13:02:57.801Z,1.70
2022-11-29T13:06:01.324Z,1.40
2022-11-29T13:09:20.136Z,1.60
2022-11-29T13:12:14.096Z,1.70
2022-11-29T13:15:08.057Z,1.40
2022-11-29T13:18:02.106Z,1.58
2022-11-29T13:20:59.685Z,1.48
2022-11-29T13:24:10.517Z,1.50
2022-11-29T13:29:48.260Z,1.27
2022-11-29T13:32:41.197Z,1.40
2022-11-29T13:35:36.588Z,1.83
2022-11-29T13:38:31.752Z,1.50
2022-11-29T13:41:28.858Z,1.65
2022-11-29T13:44:23.717Z,1.45
2022-11-29T13:47:13.826Z,1.55
2022-11-29T13:50:04.761Z,1.60
2022-11-29T13:53:05.773Z,1.50
2022-11-29T13:56:01.818Z,1.58
2022-11-29T13:58:54.970Z,1.42
2022-11-29T14:01:50.371Z,1.40
2022-11-29T14:04:46.999Z,1.52
2022-11-29T14:07:36.495Z,1.52
2022-11-29T14:10:29.119Z,1.60
2022-11-29T14:13:19.636Z,1.60
2022-11-29T14:16:16.732Z,1.70
2022-11-29T14:19:22.584Z,1.40
2022-11-29T14:22:22.149Z,1.52
2022-11-29T14:25:50.539Z,1.52
2022-11-29T14:28:38.770Z,1.90
2022-11-29T14:31:53.110Z,1.50
2022-11-29T14:34:49.088Z,1.52
2022-11-29T14:37:54.385Z,1.63
2022-11-29T14:40:51.684Z,1.40
2022-11-29T14:43:41.925Z,1.70
2022-11-29T14:46:33.359Z,1.45
2022-11-29T14:49:25.158Z,1.50
2022-11-29T14:55:30.034Z,1.60
2022-11-29T14:58:21.775Z,1.40
2022-11-29T15:01:12.774Z,1.60
2022-11-29T15:04:07.922Z,1.60
2022-11-29T15:06:58.205Z,1.50
2022-11-29T15:09:55.096Z,1.60
2022-11-29T15:12:51.176Z,1.70
2022-11-29T15:16:15.711Z,1.88
2022-11-29T15:19:30.505Z,1.50
2022-11-29T15:22:21.133Z,1.40
2022-11-29T15:25:20.334Z,1.55
2022-11-29T15:28:19.795Z,1.50
2022-11-29T15:31:10.846Z,1.33
2022-11-29T15:34:00.803Z,1.40
2022-11-29T15:36:49.594Z,1.33
2022-11-29T15:39:40.177Z,1.50
2022-11-29T15:42:32.655Z,1.48
2022-11-29T15:45:39.416Z,1.50
2022-11-29T15:48:31.576Z,1.50
2022-11-29T15:51:27.512Z,1.40
2022-11-29T15:54:21.947Z,1.52
2022-11-29T15:57:15.699Z,1.90
2022-11-29T16:00:07.456Z,1.65
2022-11-29T16:02:59.781Z,1.35
2022-11-29T16:05:57.165Z,1.50
2022-11-29T16:08:48.670Z,1.38
2022-11-29T16:11:38.819Z,1.60
2022-11-29T16:14:28.997Z,1.50
2022-11-29T16:17:17.837Z,1.25
2022-11-29T16:20:23.457Z,1.55
2022-11-29T16:23:14.029Z,1.55
2022-11-29T16:26:11.655Z,1.52
2022-11-29T16:29:01.438Z,1.40
2022-11-29T16:31:50.058Z,1.65
2022-11-29T16:34:44.126Z,1.30
2022-11-29T16:37:39.835Z,1.48
2022-11-29T16:40:30.412Z,1.58
2022-11-29T16:43:43.583Z,1.35
2022-11-29T16:46:37.912Z,1.77
2022-11-29T16:49:36.618Z,1.40
2022-11-29T16:52:26.531Z,1.50
2022-11-29T16:55:17.347Z,1.50
2022-11-29T16:58:05.985Z,1.50
2022-11-29T17:00:56.228Z,1.30
2022-11-29T17:03:45.590Z,2.00
2022-11-29T17:06:33.878Z,1.52
2022-11-29T17:09:25.727Z,1.58
2022-11-29T17:12:15.488Z,1.40
2022-11-29T17:15:04.871Z,1.50
2022-11-29T17:17:54.456Z,1.38
2022-11-29T17:20:45.025Z,1.45
2022-11-29T17:23:34.836Z,1.40
2022-11-29T17:26:23.986Z,1.50
2022-11-29T17:29:12.859Z,1.65
2022-11-29T17:32:01.486Z,1.65
2022-11-29T17:34:51.629Z,1.40
2022-11-29T17:37:40.053Z,1.70
2022-11-29T17:40:28.748Z,1.58
2022-11-29T17:43:17.483Z,1.23
2022-11-29T17:46:10.144Z,1.60
2022-11-29T17:49:01.319Z,1.48
2022-11-29T17:51:59.987Z,1.50
2022-11-29T17:54:48.505Z,1.25
2022-11-29T17:57:37.261Z,1.45
2022-11-29T18:00:25.648Z,1.60
2022-11-29T18:03:14.297Z,1.40
2022-11-29T18:06:02.973Z,1.50
2022-11-29T18:08:55.036Z,1.40
2022-11-29T18:11:48.476Z,1.58
2022-11-29T18:14:42.646Z,1.67
2022-11-29T18:17:31.417Z,1.40
2022-11-29T18:20:20.144Z,1.63
2022-11-29T18:23:10.498Z,1.50
2022-11-29T18:26:01.719Z,1.55
2022-11-29T18:28:50.497Z,1.40
2022-11-29T18:31:40.653Z,1.50
2022-11-29T18:34:29.157Z,1.40
2022-11-29T18:37:33.712Z,1.55
2022-11-29T18:40:26.733Z,1.50
2022-11-29T18:43:17.930Z,1.63
2022-11-29T18:46:10.340Z,1.48
2022-11-29T18:48:59.869Z,1.52
2022-11-29T18:51:51.492Z,1.40
2022-11-29T18:54:45.171Z,1.40
2022-11-29T18:57:34.077Z,1.60
2022-11-29T19:00:30.206Z,1.50
2022-11-29T19:03:18.976Z,1.70
2022-11-29T19:06:11.017Z,1.55
2022-11-29T19:08:59.455Z,1.60
2022-11-29T19:11:48.733Z,1.42
2022-11-29T19:14:38.640Z,1.60
2022-11-29T19:17:28.637Z,1.42
2022-11-29T19:20:17.352Z,1.45
2022-11-29T19:23:05.684Z,1.50
2022-11-29T19:25:54.374Z,1.60
2022-11-29T19:28:44.396Z,1.55
2022-11-29T19:31:32.977Z,1.63
2022-11-29T19:34:22.434Z,1.50
2022-11-29T19:37:11.117Z,1.50
2022-11-29T19:39:59.239Z,1.17
2022-11-29T19:42:49.021Z,1.55
2022-11-29T19:45:40.288Z,1.50
2022-11-29T19:48:28.802Z,1.67
2022-11-29T19:51:18.734Z,1.40
2022-11-29T19:54:09.887Z,1.33
2022-11-29T19:56:58.975Z,1.50
2022-11-29T19:59:47.944Z,1.60
2022-11-29T20:02:37.100Z,1.50
2022-11-29T20:05:27.291Z,1.40
2022-11-29T20:08:21.194Z,1.52
2022-11-29T20:11:11.705Z,1.70
2022-11-29T20:14:01.701Z,1.55
2022-11-29T20:16:50.654Z,1.67
2022-11-29T20:19:38.937Z,1.52
2022-11-29T20:22:27.480Z,1.50
2022-11-29T20:25:17.264Z,1.70
2022-11-29T20:28:06.848Z,1.23
2022-11-29T20:30:55.487Z,1.60
2022-11-29T20:33:46.183Z,1.50
2022-11-29T20:36:45.814Z,1.50
2022-11-29T20:39:42.541Z,1.42
2022-11-29T20:42:45.686Z,1.70
2022-11-29T20:45:34.684Z,1.70
2022-11-29T20:48:24.373Z,1.30
2022-11-29T20:51:14.840Z,2.00
2022-11-29T20:54:03.373Z,1.60
2022-11-29T20:56:51.766Z,1.65
2022-11-29T20:59:41.581Z,1.70
2022-11-29T21:02:30.413Z,1.40
2022-11-29T21:05:19.250Z,1.52
2022-11-29T21:08:07.904Z,1.70
2022-11-29T21:10:56.348Z,1.40
2022-11-29T21:13:45.716Z,1.63
2022-11-29T21:16:36.014Z,1.50
2022-11-29T21:19:26.774Z,1.35
2022-11-29T21:22:28.949Z,1.42
2022-11-29T21:25:26.353Z,1.30
2022-11-29T21:28:16.319Z,1.60
2022-11-29T21:31:05.314Z,1.70
2022-11-29T21:33:55.690Z,1.50
2022-11-29T21:36:45.838Z,1.73
2022-11-29T21:39:35.625Z,1.48
2022-11-29T21:42:23.814Z,1.70
2022-11-29T21:45:15.720Z,1.55
2022-11-29T21:48:25.329Z,1.58
2022-11-29T21:51:15.232Z,1.67
2022-11-29T21:54:04.143Z,1.55
2022-11-29T21:56:52.516Z,1.50
2022-11-29T21:59:40.973Z,1.40
2022-11-29T22:02:29.381Z,1.42
2022-11-29T22:05:18.173Z,1.45
2022-11-29T22:08:07.769Z,1.63
2022-11-29T22:11:02.287Z,1.30
2022-11-29T22:14:07.675Z,1.40
2022-11-29T22:16:57.303Z,1.33
2022-11-29T22:19:45.406Z,1.60
2022-11-29T22:22:34.287Z,1.70
2022-11-29T22:25:23.889Z,1.70
2022-11-29T22:28:12.380Z,1.50
2022-11-29T22:31:04.706Z,1.50
2022-11-29T22:33:55.171Z,1.60
2022-11-29T22:36:43.729Z,1.47
2022-11-29T22:39:31.893Z,1.58
2022-11-29T22:42:21.442Z,1.30
2022-11-29T22:45:10.790Z,1.77
2022-11-29T22:48:00.092Z,1.40
2022-11-29T22:50:48.424Z,1.50
2022-11-29T22:53:37.400Z,1.45
2022-11-29T22:56:27.936Z,1.40
2022-11-29T22:59:17.697Z,1.67
2022-11-29T23:02:06.273Z,1.30
2022-11-29T23:04:54.856Z,1.40
2022-11-29T23:07:46.783Z,1.42
2022-11-29T23:10:34.963Z,1.40
2022-11-29T23:13:23.161Z,1.60
2022-11-29T23:16:17.020Z,1.60
2022-11-29T23:19:05.540Z,1.50
2022-11-29T23:21:55.676Z,1.58
2022-11-29T23:24:44.507Z,1.60
2022-11-29T23:27:32.884Z,1.40
2022-11-29T23:30:21.516Z,1.33
2022-11-29T23:33:11.262Z,1.73
2022-11-29T23:36:04.527Z,1.30
2022-11-29T23:38:53.258Z,1.60
2022-11-29T23:41:41.978Z,1.60
2022-11-29T23:44:30.869Z,1.40
2022-11-29T23:47:19.157Z,1.50
2022-11-29T23:50:10.965Z,1.38
2022-11-29T23:52:59.873Z,1.63
2022-11-29T23:55:57.482Z,1.52
2022-11-29T23:58:46.164Z,1.50
